sensor_id;sensor_type;location;lat;lon;timestamp;P1;durP1;ratioP1;P2;durP2;ratioP2
611;SDS011;293;53.888;11.464;2023-03-01T00:01:55;6.35;;;3.42;;
611;SDS011;293;53.888;11.464;2023-03-01T00:04:22;6.47;;;4.25;;
611;SDS011;293;53.888;11.464;2023-03-01T00:06:50;4.53;;;3.60;;
611;SDS011;293;53.888;11.464;2023-03-01T00:09:17;4.43;;;3.70;;
611;SDS011;293;53.888;11.464;2023-03-01T00:11:44;5.80;;;3.92;;
611;SDS011;293;53.888;11.464;2023-03-01T00:14:11;6.22;;;4.47;;
611;SDS011;293;53.888;11.464;2023-03-01T00:16:39;5.00;;;3.90;;
611;SDS011;293;53.888;11.464;2023-03-01T00:19:08;6.80;;;3.80;;
611;SDS011;293;53.888;11.464;2023-03-01T00:21:38;5.20;;;3.90;;
611;SDS011;293;53.888;11.464;2023-03-01T00:24:07;5.25;;;3.60;;
611;SDS011;293;53.888;11.464;2023-03-01T00:26:34;4.70;;;3.38;;
611;SDS011;293;53.888;11.464;2023-03-01T00:29:01;3.92;;;3.53;;
611;SDS011;293;53.888;11.464;2023-03-01T00:31:29;6.03;;;4.60;;
611;SDS011;293;53.888;11.464;2023-03-01T00:33:57;4.60;;;4.20;;
611;SDS011;293;53.888;11.464;2023-03-01T00:36:28;5.53;;;4.05;;
611;SDS011;293;53.888;11.464;2023-03-01T00:38:57;4.95;;;3.33;;
611;SDS011;293;53.888;11.464;2023-03-01T00:41:25;5.50;;;3.70;;
611;SDS011;293;53.888;11.464;2023-03-01T00:43:52;5.07;;;4.13;;
611;SDS011;293;53.888;11.464;2023-03-01T00:46:20;4.88;;;3.88;;
611;SDS011;293;53.888;11.464;2023-03-01T00:48:48;5.65;;;3.00;;
611;SDS011;293;53.888;11.464;2023-03-01T00:51:16;4.25;;;3.40;;
611;SDS011;293;53.888;11.464;2023-03-01T00:53:44;4.45;;;4.07;;
611;SDS011;293;53.888;11.464;2023-03-01T00:56:12;6.78;;;4.18;;
611;SDS011;293;53.888;11.464;2023-03-01T00:58:41;4.50;;;3.40;;
611;SDS011;293;53.888;11.464;2023-03-01T01:01:09;4.38;;;3.85;;
611;SDS011;293;53.888;11.464;2023-03-01T01:03:42;5.07;;;3.90;;
611;SDS011;293;53.888;11.464;2023-03-01T01:06:14;3.88;;;3.53;;
611;SDS011;293;53.888;11.464;2023-03-01T01:08:42;7.82;;;4.00;;
611;SDS011;293;53.888;11.464;2023-03-01T01:11:09;4.20;;;3.63;;
611;SDS011;293;53.888;11.464;2023-03-01T01:13:38;5.35;;;3.88;;
611;SDS011;293;53.888;11.464;2023-03-01T01:16:07;4.78;;;3.50;;
611;SDS011;293;53.888;11.464;2023-03-01T01:18:34;6.20;;;2.97;;
611;SDS011;293;53.888;11.464;2023-03-01T01:21:05;5.20;;;3.78;;
611;SDS011;293;53.888;11.464;2023-03-01T01:23:33;5.70;;;3.72;;
611;SDS011;293;53.888;11.464;2023-03-01T01:26:04;6.10;;;3.80;;
611;SDS011;293;53.888;11.464;2023-03-01T01:28:32;4.03;;;3.33;;
611;SDS011;293;53.888;11.464;2023-03-01T01:30:59;5.00;;;3.53;;
611;SDS011;293;53.888;11.464;2023-03-01T01:33:27;4.82;;;4.20;;
611;SDS011;293;53.888;11.464;2023-03-01T01:35:54;5.40;;;3.75;;
611;SDS011;293;53.888;11.464;2023-03-01T01:38:21;4.05;;;3.42;;
611;SDS011;293;53.888;11.464;2023-03-01T01:40:50;5.05;;;4.05;;
611;SDS011;293;53.888;11.464;2023-03-01T01:43:19;3.70;;;3.40;;
611;SDS011;293;53.888;11.464;2023-03-01T01:45:48;6.50;;;3.78;;
611;SDS011;293;53.888;11.464;2023-03-01T01:48:16;5.45;;;4.15;;
611;SDS011;293;53.888;11.464;2023-03-01T01:50:49;7.63;;;4.63;;
611;SDS011;293;53.888;11.464;2023-03-01T01:53:24;5.07;;;4.35;;
611;SDS011;293;53.888;11.464;2023-03-01T01:55:53;5.72;;;4.05;;
611;SDS011;293;53.888;11.464;2023-03-01T01:58:23;5.82;;;4.20;;
611;SDS011;293;53.888;11.464;2023-03-01T02:00:52;4.78;;;4.35;;
611;SDS011;293;53.888;11.464;2023-03-01T02:03:21;4.05;;;3.35;;
611;SDS011;293;53.888;11.464;2023-03-01T02:05:56;5.65;;;4.13;;
611;SDS011;293;53.888;11.464;2023-03-01T02:08:27;8.90;;;3.78;;
611;SDS011;293;53.888;11.464;2023-03-01T02:10:56;6.03;;;3.78;;
611;SDS011;293;53.888;11.464;2023-03-01T02:13:24;5.15;;;4.43;;
611;SDS011;293;53.888;11.464;2023-03-01T02:15:51;5.43;;;3.97;;
611;SDS011;293;53.888;11.464;2023-03-01T02:18:19;4.78;;;4.00;;
611;SDS011;293;53.888;11.464;2023-03-01T02:20:49;7.85;;;4.57;;
611;SDS011;293;53.888;11.464;2023-03-01T02:23:26;7.70;;;4.75;;
611;SDS011;293;53.888;11.464;2023-03-01T02:25:56;5.15;;;4.03;;
611;SDS011;293;53.888;11.464;2023-03-01T02:28:30;4.75;;;4.15;;
611;SDS011;293;53.888;11.464;2023-03-01T02:30:58;4.65;;;3.83;;
611;SDS011;293;53.888;11.464;2023-03-01T02:33:43;5.55;;;4.55;;
611;SDS011;293;53.888;11.464;2023-03-01T02:36:14;4.50;;;3.47;;
611;SDS011;293;53.888;11.464;2023-03-01T02:38:45;5.65;;;3.67;;
611;SDS011;293;53.888;11.464;2023-03-01T02:41:15;5.60;;;3.45;;
611;SDS011;293;53.888;11.464;2023-03-01T02:43:46;4.00;;;3.67;;
611;SDS011;293;53.888;11.464;2023-03-01T02:46:15;6.20;;;4.55;;
611;SDS011;293;53.888;11.464;2023-03-01T02:48:44;6.72;;;4.25;;
611;SDS011;293;53.888;11.464;2023-03-01T02:51:26;4.95;;;3.60;;
611;SDS011;293;53.888;11.464;2023-03-01T02:54:07;4.40;;;3.53;;
611;SDS011;293;53.888;11.464;2023-03-01T02:56:39;6.30;;;3.75;;
611;SDS011;293;53.888;11.464;2023-03-01T02:59:08;5.10;;;3.90;;
611;SDS011;293;53.888;11.464;2023-03-01T03:01:36;4.53;;;3.75;;
611;SDS011;293;53.888;11.464;2023-03-01T03:04:04;4.50;;;4.10;;
611;SDS011;293;53.888;11.464;2023-03-01T03:06:31;5.85;;;3.72;;
611;SDS011;293;53.888;11.464;2023-03-01T03:08:58;5.45;;;4.40;;
611;SDS011;293;53.888;11.464;2023-03-01T03:11:25;4.80;;;3.75;;
611;SDS011;293;53.888;11.464;2023-03-01T03:13:52;9.50;;;3.75;;
611;SDS011;293;53.888;11.464;2023-03-01T03:16:21;6.40;;;4.10;;
611;SDS011;293;53.888;11.464;2023-03-01T03:18:48;5.40;;;2.97;;
611;SDS011;293;53.888;11.464;2023-03-01T03:21:15;2.88;;;2.63;;
611;SDS011;293;53.888;11.464;2023-03-01T03:23:42;3.35;;;2.70;;
611;SDS011;293;53.888;11.464;2023-03-01T03:26:09;4.60;;;3.70;;
611;SDS011;293;53.888;11.464;2023-03-01T03:28:40;4.80;;;3.67;;
611;SDS011;293;53.888;11.464;2023-03-01T03:31:07;6.03;;;3.47;;
611;SDS011;293;53.888;11.464;2023-03-01T03:33:35;5.03;;;3.65;;
611;SDS011;293;53.888;11.464;2023-03-01T03:36:03;5.00;;;3.75;;
611;SDS011;293;53.888;11.464;2023-03-01T03:38:30;4.03;;;3.00;;
611;SDS011;293;53.888;11.464;2023-03-01T03:41:01;8.02;;;4.50;;
611;SDS011;293;53.888;11.464;2023-03-01T03:43:30;4.38;;;3.17;;
611;SDS011;293;53.888;11.464;2023-03-01T03:45:58;6.57;;;3.63;;
611;SDS011;293;53.888;11.464;2023-03-01T03:48:26;6.35;;;3.55;;
611;SDS011;293;53.888;11.464;2023-03-01T03:50:55;4.47;;;3.55;;
611;SDS011;293;53.888;11.464;2023-03-01T03:53:23;4.25;;;3.33;;
611;SDS011;293;53.888;11.464;2023-03-01T03:55:52;4.55;;;3.60;;
611;SDS011;293;53.888;11.464;2023-03-01T03:58:20;4.55;;;3.95;;
611;SDS011;293;53.888;11.464;2023-03-01T04:00:49;4.88;;;4.32;;
611;SDS011;293;53.888;11.464;2023-03-01T04:03:17;4.60;;;3.90;;
611;SDS011;293;53.888;11.464;2023-03-01T04:05:46;4.78;;;4.13;;
611;SDS011;293;53.888;11.464;2023-03-01T04:08:16;5.63;;;4.32;;
611;SDS011;293;53.888;11.464;2023-03-01T04:10:45;6.78;;;5.32;;
611;SDS011;293;53.888;11.464;2023-03-01T04:13:14;6.43;;;4.43;;
611;SDS011;293;53.888;11.464;2023-03-01T04:15:44;6.38;;;4.25;;
611;SDS011;293;53.888;11.464;2023-03-01T04:18:11;9.38;;;3.83;;
611;SDS011;293;53.888;11.464;2023-03-01T04:20:39;4.97;;;4.07;;
611;SDS011;293;53.888;11.464;2023-03-01T04:23:07;3.97;;;3.55;;
611;SDS011;293;53.888;11.464;2023-03-01T04:25:42;5.13;;;3.85;;
611;SDS011;293;53.888;11.464;2023-03-01T04:28:14;4.05;;;3.28;;
611;SDS011;293;53.888;11.464;2023-03-01T04:30:41;5.65;;;4.10;;
611;SDS011;293;53.888;11.464;2023-03-01T04:33:08;4.88;;;3.60;;
611;SDS011;293;53.888;11.464;2023-03-01T04:35:36;4.55;;;3.88;;
611;SDS011;293;53.888;11.464;2023-03-01T04:38:05;5.10;;;3.53;;
611;SDS011;293;53.888;11.464;2023-03-01T04:40:32;4.70;;;3.97;;
611;SDS011;293;53.888;11.464;2023-03-01T04:43:01;5.47;;;3.90;;
611;SDS011;293;53.888;11.464;2023-03-01T04:45:28;5.15;;;4.25;;
611;SDS011;293;53.888;11.464;2023-03-01T04:47:55;6.22;;;4.65;;
611;SDS011;293;53.888;11.464;2023-03-01T04:50:23;5.43;;;3.50;;
611;SDS011;293;53.888;11.464;2023-03-01T04:52:50;6.95;;;4.22;;
611;SDS011;293;53.888;11.464;2023-03-01T04:55:17;6.55;;;3.55;;
611;SDS011;293;53.888;11.464;2023-03-01T04:57:44;4.68;;;3.55;;
611;SDS011;293;53.888;11.464;2023-03-01T05:00:13;6.78;;;4.25;;
611;SDS011;293;53.888;11.464;2023-03-01T05:02:47;7.38;;;4.28;;
611;SDS011;293;53.888;11.464;2023-03-01T05:05:18;4.65;;;3.50;;
611;SDS011;293;53.888;11.464;2023-03-01T05:07:46;5.32;;;3.42;;
611;SDS011;293;53.888;11.464;2023-03-01T05:10:13;4.10;;;3.70;;
611;SDS011;293;53.888;11.464;2023-03-01T05:12:40;4.20;;;2.97;;
611;SDS011;293;53.888;11.464;2023-03-01T05:15:08;5.85;;;4.40;;
611;SDS011;293;53.888;11.464;2023-03-01T05:17:36;6.07;;;4.07;;
611;SDS011;293;53.888;11.464;2023-03-01T05:20:04;6.53;;;4.90;;
611;SDS011;293;53.888;11.464;2023-03-01T05:22:33;4.90;;;4.18;;
611;SDS011;293;53.888;11.464;2023-03-01T05:25:00;5.35;;;4.25;;
611;SDS011;293;53.888;11.464;2023-03-01T05:27:28;7.90;;;5.47;;
611;SDS011;293;53.888;11.464;2023-03-01T05:29:55;8.43;;;4.57;;
611;SDS011;293;53.888;11.464;2023-03-01T05:32:21;6.30;;;4.68;;
611;SDS011;293;53.888;11.464;2023-03-01T05:34:50;7.05;;;5.25;;
611;SDS011;293;53.888;11.464;2023-03-01T05:37:17;5.10;;;4.22;;
611;SDS011;293;53.888;11.464;2023-03-01T05:39:44;10.35;;;5.55;;
611;SDS011;293;53.888;11.464;2023-03-01T05:42:11;12.23;;;7.57;;
611;SDS011;293;53.888;11.464;2023-03-01T05:44:38;6.90;;;5.35;;
611;SDS011;293;53.888;11.464;2023-03-01T05:47:05;9.48;;;5.50;;
611;SDS011;293;53.888;11.464;2023-03-01T05:49:32;54.00;;;33.53;;
611;SDS011;293;53.888;11.464;2023-03-01T05:52:01;45.22;;;27.55;;
611;SDS011;293;53.888;11.464;2023-03-01T05:54:27;25.83;;;13.20;;
611;SDS011;293;53.888;11.464;2023-03-01T05:56:54;14.98;;;9.55;;
611;SDS011;293;53.888;11.464;2023-03-01T05:59:22;9.88;;;7.47;;
611;SDS011;293;53.888;11.464;2023-03-01T06:01:48;13.07;;;8.52;;
611;SDS011;293;53.888;11.464;2023-03-01T06:04:16;12.75;;;9.32;;
611;SDS011;293;53.888;11.464;2023-03-01T06:06:43;13.82;;;7.05;;
611;SDS011;293;53.888;11.464;2023-03-01T06:09:11;9.70;;;6.05;;
611;SDS011;293;53.888;11.464;2023-03-01T06:11:39;8.70;;;6.22;;
611;SDS011;293;53.888;11.464;2023-03-01T06:14:06;7.85;;;6.95;;
611;SDS011;293;53.888;11.464;2023-03-01T06:16:35;8.95;;;6.90;;
611;SDS011;293;53.888;11.464;2023-03-01T06:19:02;9.13;;;6.90;;
611;SDS011;293;53.888;11.464;2023-03-01T06:21:29;10.38;;;6.53;;
611;SDS011;293;53.888;11.464;2023-03-01T06:23:56;9.00;;;6.85;;
611;SDS011;293;53.888;11.464;2023-03-01T06:26:24;9.35;;;7.00;;
611;SDS011;293;53.888;11.464;2023-03-01T06:28:54;11.07;;;7.40;;
611;SDS011;293;53.888;11.464;2023-03-01T06:31:23;8.60;;;6.70;;
611;SDS011;293;53.888;11.464;2023-03-01T06:33:50;10.13;;;6.85;;
611;SDS011;293;53.888;11.464;2023-03-01T06:36:17;10.50;;;5.63;;
611;SDS011;293;53.888;11.464;2023-03-01T06:38:46;8.43;;;6.28;;
611;SDS011;293;53.888;11.464;2023-03-01T06:41:12;9.98;;;6.63;;
611;SDS011;293;53.888;11.464;2023-03-01T06:43:41;9.52;;;6.25;;
611;SDS011;293;53.888;11.464;2023-03-01T06:46:07;8.25;;;5.65;;
611;SDS011;293;53.888;11.464;2023-03-01T06:48:34;8.20;;;5.65;;
611;SDS011;293;53.888;11.464;2023-03-01T06:51:01;7.15;;;6.22;;
611;SDS011;293;53.888;11.464;2023-03-01T06:53:28;9.30;;;6.70;;
611;SDS011;293;53.888;11.464;2023-03-01T06:55:56;10.60;;;6.78;;
611;SDS011;293;53.888;11.464;2023-03-01T06:58:25;9.80;;;7.88;;
611;SDS011;293;53.888;11.464;2023-03-01T07:00:53;9.73;;;7.60;;
611;SDS011;293;53.888;11.464;2023-03-01T07:03:20;9.45;;;8.48;;
611;SDS011;293;53.888;11.464;2023-03-01T07:05:48;8.13;;;6.82;;
611;SDS011;293;53.888;11.464;2023-03-01T07:08:16;12.15;;;8.93;;
611;SDS011;293;53.888;11.464;2023-03-01T07:10:43;22.08;;;13.73;;
611;SDS011;293;53.888;11.464;2023-03-01T07:13:10;13.15;;;8.02;;
611;SDS011;293;53.888;11.464;2023-03-01T07:15:37;12.25;;;8.40;;
611;SDS011;293;53.888;11.464;2023-03-01T07:18:07;8.52;;;7.60;;
611;SDS011;293;53.888;11.464;2023-03-01T07:20:34;9.10;;;7.40;;
611;SDS011;293;53.888;11.464;2023-03-01T07:23:01;9.30;;;7.18;;
611;SDS011;293;53.888;11.464;2023-03-01T07:25:28;8.65;;;7.30;;
611;SDS011;293;53.888;11.464;2023-03-01T07:27:55;12.77;;;8.13;;
611;SDS011;293;53.888;11.464;2023-03-01T07:30:22;17.27;;;9.55;;
611;SDS011;293;53.888;11.464;2023-03-01T07:32:50;11.60;;;8.48;;
611;SDS011;293;53.888;11.464;2023-03-01T07:35:19;14.60;;;9.38;;
611;SDS011;293;53.888;11.464;2023-03-01T07:37:46;13.77;;;8.95;;
611;SDS011;293;53.888;11.464;2023-03-01T07:40:13;13.50;;;10.38;;
611;SDS011;293;53.888;11.464;2023-03-01T07:42:40;11.07;;;8.88;;
611;SDS011;293;53.888;11.464;2023-03-01T07:45:07;11.80;;;9.10;;
611;SDS011;293;53.888;11.464;2023-03-01T07:47:35;12.13;;;9.63;;
611;SDS011;293;53.888;11.464;2023-03-01T07:50:03;15.93;;;10.70;;
611;SDS011;293;53.888;11.464;2023-03-01T07:52:31;15.98;;;10.65;;
611;SDS011;293;53.888;11.464;2023-03-01T07:54:58;16.00;;;9.98;;
611;SDS011;293;53.888;11.464;2023-03-01T07:57:25;17.33;;;11.35;;
611;SDS011;293;53.888;11.464;2023-03-01T07:59:52;14.95;;;10.63;;
611;SDS011;293;53.888;11.464;2023-03-01T08:02:19;17.45;;;12.55;;
611;SDS011;293;53.888;11.464;2023-03-01T08:04:45;21.98;;;13.18;;
611;SDS011;293;53.888;11.464;2023-03-01T08:07:12;18.70;;;12.88;;
611;SDS011;293;53.888;11.464;2023-03-01T08:09:41;18.10;;;12.93;;
611;SDS011;293;53.888;11.464;2023-03-01T08:12:07;18.27;;;13.10;;
611;SDS011;293;53.888;11.464;2023-03-01T08:14:34;22.23;;;13.48;;
611;SDS011;293;53.888;11.464;2023-03-01T08:17:01;18.88;;;12.95;;
611;SDS011;293;53.888;11.464;2023-03-01T08:19:29;22.83;;;15.55;;
611;SDS011;293;53.888;11.464;2023-03-01T08:21:56;19.20;;;14.25;;
611;SDS011;293;53.888;11.464;2023-03-01T08:24:25;20.92;;;15.02;;
611;SDS011;293;53.888;11.464;2023-03-01T08:26:53;21.08;;;13.93;;
611;SDS011;293;53.888;11.464;2023-03-01T08:29:21;22.05;;;16.50;;
611;SDS011;293;53.888;11.464;2023-03-01T08:31:49;25.25;;;16.70;;
611;SDS011;293;53.888;11.464;2023-03-01T08:34:18;25.60;;;16.13;;
611;SDS011;293;53.888;11.464;2023-03-01T08:36:45;22.95;;;16.52;;
611;SDS011;293;53.888;11.464;2023-03-01T08:39:13;24.77;;;16.27;;
611;SDS011;293;53.888;11.464;2023-03-01T08:41:41;25.10;;;19.63;;
611;SDS011;293;53.888;11.464;2023-03-01T08:44:10;40.67;;;29.27;;
611;SDS011;293;53.888;11.464;2023-03-01T08:46:39;43.20;;;29.08;;
611;SDS011;293;53.888;11.464;2023-03-01T08:49:07;27.58;;;18.20;;
611;SDS011;293;53.888;11.464;2023-03-01T08:51:37;26.42;;;18.90;;
611;SDS011;293;53.888;11.464;2023-03-01T08:54:04;30.75;;;18.65;;
611;SDS011;293;53.888;11.464;2023-03-01T08:56:33;28.88;;;20.83;;
611;SDS011;293;53.888;11.464;2023-03-01T08:59:00;26.20;;;18.60;;
611;SDS011;293;53.888;11.464;2023-03-01T09:01:28;26.55;;;18.50;;
611;SDS011;293;53.888;11.464;2023-03-01T09:03:55;24.63;;;19.55;;
611;SDS011;293;53.888;11.464;2023-03-01T09:06:22;27.95;;;18.55;;
611;SDS011;293;53.888;11.464;2023-03-01T09:08:49;24.90;;;19.00;;
611;SDS011;293;53.888;11.464;2023-03-01T09:11:17;24.25;;;18.60;;
611;SDS011;293;53.888;11.464;2023-03-01T09:13:46;29.17;;;20.67;;
611;SDS011;293;53.888;11.464;2023-03-01T09:16:14;24.98;;;17.70;;
611;SDS011;293;53.888;11.464;2023-03-01T09:18:44;28.05;;;18.63;;
611;SDS011;293;53.888;11.464;2023-03-01T09:21:12;23.08;;;16.40;;
611;SDS011;293;53.888;11.464;2023-03-01T09:23:42;28.80;;;22.85;;
611;SDS011;293;53.888;11.464;2023-03-01T09:26:10;39.03;;;29.20;;
611;SDS011;293;53.888;11.464;2023-03-01T09:28:39;40.53;;;23.17;;
611;SDS011;293;53.888;11.464;2023-03-01T09:31:07;37.67;;;22.20;;
611;SDS011;293;53.888;11.464;2023-03-01T09:33:34;33.00;;;18.80;;
611;SDS011;293;53.888;11.464;2023-03-01T09:36:03;30.40;;;19.13;;
611;SDS011;293;53.888;11.464;2023-03-01T09:38:32;28.83;;;20.25;;
611;SDS011;293;53.888;11.464;2023-03-01T09:40:59;34.85;;;20.50;;
611;SDS011;293;53.888;11.464;2023-03-01T09:43:29;28.35;;;19.40;;
611;SDS011;293;53.888;11.464;2023-03-01T09:46:04;26.75;;;18.10;;
611;SDS011;293;53.888;11.464;2023-03-01T09:48:37;25.90;;;18.92;;
611;SDS011;293;53.888;11.464;2023-03-01T09:51:12;28.30;;;17.42;;
611;SDS011;293;53.888;11.464;2023-03-01T09:53:44;28.10;;;19.30;;
611;SDS011;293;53.888;11.464;2023-03-01T09:56:12;30.25;;;21.70;;
611;SDS011;293;53.888;11.464;2023-03-01T09:58:47;29.02;;;19.98;;
611;SDS011;293;53.888;11.464;2023-03-01T10:01:25;23.27;;;15.43;;
611;SDS011;293;53.888;11.464;2023-03-01T10:04:04;27.25;;;16.95;;
611;SDS011;293;53.888;11.464;2023-03-01T10:06:49;27.15;;;18.50;;
611;SDS011;293;53.888;11.464;2023-03-01T10:09:20;29.42;;;19.30;;
611;SDS011;293;53.888;11.464;2023-03-01T10:11:48;23.80;;;16.83;;
611;SDS011;293;53.888;11.464;2023-03-01T10:14:22;28.75;;;20.40;;
611;SDS011;293;53.888;11.464;2023-03-01T10:16:58;26.45;;;19.33;;
611;SDS011;293;53.888;11.464;2023-03-01T10:19:30;28.52;;;19.60;;
611;SDS011;293;53.888;11.464;2023-03-01T10:22:03;31.27;;;19.83;;
611;SDS011;293;53.888;11.464;2023-03-01T10:24:37;32.67;;;19.30;;
611;SDS011;293;53.888;11.464;2023-03-01T10:27:05;24.63;;;18.58;;
611;SDS011;293;53.888;11.464;2023-03-01T10:29:43;33.47;;;21.63;;
611;SDS011;293;53.888;11.464;2023-03-01T10:32:17;30.70;;;20.67;;
611;SDS011;293;53.888;11.464;2023-03-01T10:34:46;30.77;;;23.08;;
611;SDS011;293;53.888;11.464;2023-03-01T10:37:16;32.38;;;21.13;;
611;SDS011;293;53.888;11.464;2023-03-01T10:39:56;41.45;;;28.65;;
611;SDS011;293;53.888;11.464;2023-03-01T10:42:29;39.50;;;26.23;;
611;SDS011;293;53.888;11.464;2023-03-01T10:44:57;38.38;;;25.98;;
611;SDS011;293;53.888;11.464;2023-03-01T10:47:40;46.15;;;32.38;;
611;SDS011;293;53.888;11.464;2023-03-01T10:50:09;92.40;;;61.88;;
611;SDS011;293;53.888;11.464;2023-03-01T10:52:56;39.67;;;27.20;;
611;SDS011;293;53.888;11.464;2023-03-01T10:55:26;40.65;;;26.17;;
611;SDS011;293;53.888;11.464;2023-03-01T10:58:08;43.75;;;24.90;;
611;SDS011;293;53.888;11.464;2023-03-01T11:00:47;37.58;;;22.85;;
611;SDS011;293;53.888;11.464;2023-03-01T11:03:17;37.92;;;25.02;;
611;SDS011;293;53.888;11.464;2023-03-01T11:05:51;35.47;;;21.00;;
611;SDS011;293;53.888;11.464;2023-03-01T11:08:31;32.38;;;23.65;;
611;SDS011;293;53.888;11.464;2023-03-01T11:11:04;32.25;;;22.02;;
611;SDS011;293;53.888;11.464;2023-03-01T11:13:38;39.15;;;21.40;;
611;SDS011;293;53.888;11.464;2023-03-01T11:16:16;33.00;;;21.73;;
611;SDS011;293;53.888;11.464;2023-03-01T11:19:01;29.15;;;20.23;;
611;SDS011;293;53.888;11.464;2023-03-01T11:21:41;36.47;;;23.08;;
611;SDS011;293;53.888;11.464;2023-03-01T11:24:14;34.22;;;21.27;;
611;SDS011;293;53.888;11.464;2023-03-01T11:26:44;39.28;;;28.80;;
611;SDS011;293;53.888;11.464;2023-03-01T11:29:16;33.90;;;23.95;;
611;SDS011;293;53.888;11.464;2023-03-01T11:31:51;29.83;;;20.33;;
611;SDS011;293;53.888;11.464;2023-03-01T11:34:20;36.30;;;23.63;;
611;SDS011;293;53.888;11.464;2023-03-01T11:36:54;37.10;;;24.35;;
611;SDS011;293;53.888;11.464;2023-03-01T11:39:27;40.43;;;24.53;;
611;SDS011;293;53.888;11.464;2023-03-01T11:42:01;31.38;;;20.70;;
611;SDS011;293;53.888;11.464;2023-03-01T11:44:36;39.40;;;21.52;;
611;SDS011;293;53.888;11.464;2023-03-01T11:47:08;33.60;;;20.67;;
611;SDS011;293;53.888;11.464;2023-03-01T11:49:54;27.03;;;19.20;;
611;SDS011;293;53.888;11.464;2023-03-01T11:52:36;30.15;;;20.25;;
611;SDS011;293;53.888;11.464;2023-03-01T11:55:19;25.05;;;19.40;;
611;SDS011;293;53.888;11.464;2023-03-01T12:00:44;28.48;;;20.25;;
611;SDS011;293;53.888;11.464;2023-03-01T12:03:43;28.63;;;20.75;;
611;SDS011;293;53.888;11.464;2023-03-01T12:06:27;26.27;;;20.95;;
611;SDS011;293;53.888;11.464;2023-03-01T12:09:04;31.90;;;21.75;;
611;SDS011;293;53.888;11.464;2023-03-01T12:11:52;25.33;;;18.63;;
611;SDS011;293;53.888;11.464;2023-03-01T12:14:33;33.53;;;22.65;;
611;SDS011;293;53.888;11.464;2023-03-01T12:17:31;31.88;;;21.55;;
611;SDS011;293;53.888;11.464;2023-03-01T12:20:21;31.90;;;22.42;;
611;SDS011;293;53.888;11.464;2023-03-01T12:22:57;27.83;;;19.73;;
611;SDS011;293;53.888;11.464;2023-03-01T12:25:48;33.67;;;23.43;;
611;SDS011;293;53.888;11.464;2023-03-01T12:31:29;27.97;;;19.60;;
611;SDS011;293;53.888;11.464;2023-03-01T12:34:17;36.00;;;21.80;;
611;SDS011;293;53.888;11.464;2023-03-01T12:36:59;29.13;;;19.30;;
611;SDS011;293;53.888;11.464;2023-03-01T12:39:42;42.53;;;21.92;;
611;SDS011;293;53.888;11.464;2023-03-01T12:42:22;28.77;;;20.77;;
611;SDS011;293;53.888;11.464;2023-03-01T12:45:12;33.38;;;21.05;;
611;SDS011;293;53.888;11.464;2023-03-01T12:47:56;40.17;;;25.80;;
611;SDS011;293;53.888;11.464;2023-03-01T12:50:34;33.53;;;19.83;;
611;SDS011;293;53.888;11.464;2023-03-01T12:53:07;37.42;;;23.30;;
611;SDS011;293;53.888;11.464;2023-03-01T12:55:49;38.28;;;23.08;;
611;SDS011;293;53.888;11.464;2023-03-01T12:58:20;35.30;;;23.15;;
611;SDS011;293;53.888;11.464;2023-03-01T13:01:02;42.97;;;23.80;;
611;SDS011;293;53.888;11.464;2023-03-01T13:03:42;53.90;;;35.42;;
611;SDS011;293;53.888;11.464;2023-03-01T13:06:28;49.85;;;34.22;;
611;SDS011;293;53.888;11.464;2023-03-01T13:09:04;45.65;;;29.88;;
611;SDS011;293;53.888;11.464;2023-03-01T13:11:41;55.13;;;36.78;;
611;SDS011;293;53.888;11.464;2023-03-01T13:14:34;70.70;;;44.15;;
611;SDS011;293;53.888;11.464;2023-03-01T13:17:19;48.53;;;29.90;;
611;SDS011;293;53.888;11.464;2023-03-01T13:20:11;47.60;;;30.65;;
611;SDS011;293;53.888;11.464;2023-03-01T13:22:40;72.63;;;47.38;;
611;SDS011;293;53.888;11.464;2023-03-01T13:25:14;50.40;;;32.03;;
611;SDS011;293;53.888;11.464;2023-03-01T13:27:43;42.50;;;26.88;;
611;SDS011;293;53.888;11.464;2023-03-01T13:36:05;51.83;;;29.85;;
611;SDS011;293;53.888;11.464;2023-03-01T13:38:36;41.10;;;24.60;;
611;SDS011;293;53.888;11.464;2023-03-01T13:41:15;54.88;;;28.60;;
611;SDS011;293;53.888;11.464;2023-03-01T13:43:43;39.10;;;24.17;;
611;SDS011;293;53.888;11.464;2023-03-01T13:46:15;26.55;;;18.90;;
611;SDS011;293;53.888;11.464;2023-03-01T13:48:47;30.20;;;19.10;;
611;SDS011;293;53.888;11.464;2023-03-01T13:51:19;44.25;;;26.45;;
611;SDS011;293;53.888;11.464;2023-03-01T13:53:49;45.80;;;25.20;;
611;SDS011;293;53.888;11.464;2023-03-01T13:56:16;31.90;;;20.15;;
611;SDS011;293;53.888;11.464;2023-03-01T13:58:48;38.25;;;24.83;;
611;SDS011;293;53.888;11.464;2023-03-01T14:01:24;58.05;;;39.60;;
611;SDS011;293;53.888;11.464;2023-03-01T14:03:54;56.17;;;26.45;;
611;SDS011;293;53.888;11.464;2023-03-01T14:06:22;34.50;;;23.13;;
611;SDS011;293;53.888;11.464;2023-03-01T14:08:59;38.80;;;25.83;;
611;SDS011;293;53.888;11.464;2023-03-01T14:11:44;104.07;;;56.58;;
611;SDS011;293;53.888;11.464;2023-03-01T14:14:31;41.97;;;23.70;;
611;SDS011;293;53.888;11.464;2023-03-01T14:17:13;35.25;;;21.45;;
611;SDS011;293;53.888;11.464;2023-03-01T14:19:58;50.25;;;24.77;;
611;SDS011;293;53.888;11.464;2023-03-01T14:22:30;43.22;;;24.02;;
611;SDS011;293;53.888;11.464;2023-03-01T14:25:01;40.85;;;23.05;;
611;SDS011;293;53.888;11.464;2023-03-01T14:27:30;34.70;;;17.35;;
611;SDS011;293;53.888;11.464;2023-03-01T14:30:04;23.98;;;14.43;;
611;SDS011;293;53.888;11.464;2023-03-01T14:32:38;36.63;;;18.42;;
611;SDS011;293;53.888;11.464;2023-03-01T14:35:18;47.63;;;27.52;;
611;SDS011;293;53.888;11.464;2023-03-01T14:37:47;47.30;;;20.85;;
611;SDS011;293;53.888;11.464;2023-03-01T14:40:20;46.20;;;22.25;;
611;SDS011;293;53.888;11.464;2023-03-01T14:42:49;55.88;;;30.73;;
611;SDS011;293;53.888;11.464;2023-03-01T14:45:17;36.15;;;24.10;;
611;SDS011;293;53.888;11.464;2023-03-01T14:47:45;47.33;;;23.60;;
611;SDS011;293;53.888;11.464;2023-03-01T14:50:18;33.97;;;20.20;;
611;SDS011;293;53.888;11.464;2023-03-01T14:52:50;40.85;;;24.80;;
611;SDS011;293;53.888;11.464;2023-03-01T14:55:21;51.45;;;30.38;;
611;SDS011;293;53.888;11.464;2023-03-01T14:57:51;39.90;;;20.48;;
611;SDS011;293;53.888;11.464;2023-03-01T15:00:19;35.22;;;22.00;;
611;SDS011;293;53.888;11.464;2023-03-01T15:02:48;39.40;;;22.63;;
611;SDS011;293;53.888;11.464;2023-03-01T15:05:21;46.72;;;26.02;;
611;SDS011;293;53.888;11.464;2023-03-01T15:07:51;43.35;;;22.58;;
611;SDS011;293;53.888;11.464;2023-03-01T15:12:47;51.88;;;30.75;;
611;SDS011;293;53.888;11.464;2023-03-01T15:15:21;50.15;;;22.55;;
611;SDS011;293;53.888;11.464;2023-03-01T15:17:56;53.85;;;22.08;;
611;SDS011;293;53.888;11.464;2023-03-01T15:20:27;34.40;;;18.35;;
611;SDS011;293;53.888;11.464;2023-03-01T15:23:00;21.58;;;15.15;;
611;SDS011;293;53.888;11.464;2023-03-01T15:25:28;64.65;;;30.98;;
611;SDS011;293;53.888;11.464;2023-03-01T15:27:56;48.03;;;24.98;;
611;SDS011;293;53.888;11.464;2023-03-01T15:30:26;31.40;;;21.10;;
611;SDS011;293;53.888;11.464;2023-03-01T15:35:47;38.70;;;19.48;;
611;SDS011;293;53.888;11.464;2023-03-01T15:38:28;32.45;;;18.80;;
611;SDS011;293;53.888;11.464;2023-03-01T15:40:58;52.88;;;27.10;;
611;SDS011;293;53.888;11.464;2023-03-01T15:43:37;28.45;;;16.48;;
611;SDS011;293;53.888;11.464;2023-03-01T15:46:05;26.92;;;15.10;;
611;SDS011;293;53.888;11.464;2023-03-01T15:48:44;37.45;;;15.63;;
611;SDS011;293;53.888;11.464;2023-03-01T15:51:13;87.38;;;48.75;;
611;SDS011;293;53.888;11.464;2023-03-01T15:53:41;48.00;;;28.02;;
611;SDS011;293;53.888;11.464;2023-03-01T15:56:08;53.33;;;30.90;;